createdAt,value
2018-06-14T00:00:14.877Z,101262.61
2018-06-14T00:02:42.298Z,101261.87
2018-06-14T00:05:09.293Z,101261.52
2018-06-14T00:07:36.501Z,101258.30
2018-06-14T00:10:03.539Z,101259.39
2018-06-14T00:12:30.460Z,101264.13
2018-06-14T00:14:57.393Z,101264.50
2018-06-14T00:17:24.413Z,101260.08
2018-06-14T00:19:51.313Z,101257.02
2018-06-14T00:22:18.485Z,101258.66
2018-06-14T00:24:45.400Z,101259.52
2018-06-14T00:27:12.325Z,101257.70
2018-06-14T00:29:39.232Z,101255.84
2018-06-14T00:32:06.265Z,101257.66
2018-06-14T00:34:33.177Z,101255.20
2018-06-14T00:37:00.114Z,101264.61
2018-06-14T00:39:27.032Z,101254.17
2018-06-14T00:41:53.940Z,101256.86
2018-06-14T00:44:20.882Z,101257.01
2018-06-14T00:46:47.801Z,101254.99
2018-06-14T00:49:14.724Z,101255.00
2018-06-14T00:51:41.632Z,101249.38
2018-06-14T00:54:08.537Z,101251.78
2018-06-14T00:56:46.989Z,101256.97
2018-06-14T00:59:13.884Z,101247.55
2018-06-14T01:01:40.805Z,101253.98
2018-06-14T01:04:07.792Z,101252.22
2018-06-14T01:06:34.716Z,101253.18
2018-06-14T01:09:01.645Z,101262.65
2018-06-14T01:11:28.564Z,101255.27
2018-06-14T01:13:55.465Z,101261.02
2018-06-14T01:16:22.379Z,101261.63
2018-06-14T01:18:49.315Z,101251.33
2018-06-14T01:21:16.241Z,101251.64
2018-06-14T01:23:43.161Z,101240.31
2018-06-14T01:26:10.067Z,101239.92
2018-06-14T01:28:36.962Z,101249.88
2018-06-14T01:31:03.961Z,101245.27
2018-06-14T01:33:30.872Z,101245.55
2018-06-14T01:35:57.801Z,101248.69
2018-06-14T01:38:25.817Z,101237.27
2018-06-14T01:40:53.287Z,101248.33
2018-06-14T01:43:20.832Z,101249.20
2018-06-14T01:45:47.742Z,101259.17
2018-06-14T01:48:14.841Z,101258.15
2018-06-14T01:50:41.769Z,101255.50
2018-06-14T01:53:08.660Z,101246.30
2018-06-14T01:55:35.596Z,101250.98
2018-06-14T01:58:03.472Z,101240.06
2018-06-14T02:00:30.380Z,101246.12
2018-06-14T02:02:57.296Z,101251.60
2018-06-14T02:05:24.221Z,101241.61
2018-06-14T02:07:51.417Z,101244.17
2018-06-14T02:10:18.338Z,101246.38
2018-06-14T02:12:45.245Z,101244.17
2018-06-14T02:15:12.175Z,101235.02
2018-06-14T02:17:39.082Z,101241.03
2018-06-14T02:20:06.004Z,101245.45
2018-06-14T02:22:32.917Z,101245.94
2018-06-14T02:24:59.829Z,101240.77
2018-06-14T02:27:26.744Z,101244.83
2018-06-14T02:29:53.654Z,101238.15
2018-06-14T02:32:20.621Z,101233.91
2018-06-14T02:34:47.540Z,101237.31
2018-06-14T02:37:14.452Z,101237.94
2018-06-14T02:39:41.396Z,101239.74
2018-06-14T02:42:08.359Z,101233.59
2018-06-14T02:44:35.332Z,101233.11
2018-06-14T02:47:02.277Z,101229.13
2018-06-14T02:49:29.219Z,101228.95
2018-06-14T02:51:56.174Z,101227.18
2018-06-14T02:54:23.110Z,101225.14
2018-06-14T02:56:50.052Z,101225.80
2018-06-14T02:59:16.988Z,101229.21
2018-06-14T03:01:43.946Z,101234.66
2018-06-14T03:04:10.876Z,101230.72
2018-06-14T03:06:37.822Z,101231.83
2018-06-14T03:09:06.389Z,101234.12
2018-06-14T03:11:33.355Z,101237.13
2018-06-14T03:14:00.286Z,101231.55
2018-06-14T03:16:27.244Z,101227.97
2018-06-14T03:18:54.216Z,101233.19
2018-06-14T03:21:21.149Z,101237.66
2018-06-14T03:23:48.085Z,101232.44
2018-06-14T03:26:15.051Z,101223.95
2018-06-14T03:28:41.977Z,101231.03
2018-06-14T03:31:08.929Z,101230.14
2018-06-14T03:33:35.856Z,101236.86
2018-06-14T03:36:02.814Z,101242.65
2018-06-14T03:38:29.748Z,101242.73
2018-06-14T03:40:56.674Z,101234.81
2018-06-14T03:43:23.633Z,101237.11
2018-06-14T03:45:50.568Z,101233.41
2018-06-14T03:48:17.521Z,101230.31
2018-06-14T03:50:44.481Z,101233.45
2018-06-14T03:53:11.404Z,101230.34
2018-06-14T03:55:38.392Z,101235.97
2018-06-14T03:58:05.343Z,101233.72
2018-06-14T04:00:32.278Z,101232.92
2018-06-14T04:02:59.238Z,101234.83
2018-06-14T04:05:26.194Z,101229.52
2018-06-14T04:07:53.157Z,101228.95
2018-06-14T04:10:20.097Z,101222.71
2018-06-14T04:12:47.049Z,101222.23
2018-06-14T04:15:14.005Z,101223.29
2018-06-14T04:17:40.961Z,101227.44
2018-06-14T04:20:07.938Z,101231.83
2018-06-14T04:22:34.889Z,101238.55
2018-06-14T04:25:01.854Z,101238.77
2018-06-14T04:27:28.867Z,101238.42
2018-06-14T04:29:55.788Z,101235.23
2018-06-14T04:32:22.732Z,101235.80
2018-06-14T04:34:49.686Z,101238.17
2018-06-14T04:37:16.633Z,101234.92
2018-06-14T04:39:43.589Z,101231.48
2018-06-14T04:42:10.529Z,101237.09
2018-06-14T04:44:37.473Z,101227.13
2018-06-14T04:47:04.502Z,101212.30
2018-06-14T04:49:31.478Z,101218.02
2018-06-14T04:51:58.444Z,101221.02
2018-06-14T04:54:25.397Z,101219.69
2018-06-14T04:56:52.361Z,101210.94
2018-06-14T04:59:19.337Z,101220.19
2018-06-14T05:01:46.268Z,101226.23
2018-06-14T05:04:13.219Z,101215.50
2018-06-14T05:06:40.181Z,101210.78
2018-06-14T05:09:10.125Z,101209.98
2018-06-14T05:11:37.069Z,101209.69
2018-06-14T05:14:04.032Z,101207.41
2018-06-14T05:16:30.998Z,101207.94
2018-06-14T05:18:57.964Z,101208.05
2018-06-14T05:21:24.917Z,101195.77
2018-06-14T05:23:58.757Z,101209.98
2018-06-14T05:26:25.692Z,101208.91
2018-06-14T05:28:52.625Z,101213.15
2018-06-14T05:31:19.542Z,101210.55
2018-06-14T05:33:46.468Z,101213.76
2018-06-14T05:36:13.609Z,101213.52
2018-06-14T05:38:40.538Z,101210.16
2018-06-14T05:41:07.478Z,101211.66
2018-06-14T05:43:34.417Z,101209.00
2018-06-14T05:46:01.366Z,101204.52
2018-06-14T05:48:28.302Z,101208.85
2018-06-14T05:50:55.225Z,101206.44
2018-06-14T05:53:22.173Z,101198.56
2018-06-14T05:55:49.086Z,101203.78
2018-06-14T05:58:16.005Z,101195.31
2018-06-14T06:00:42.944Z,101198.91
2018-06-14T06:03:10.042Z,101199.49
2018-06-14T06:05:36.975Z,101201.85
2018-06-14T06:08:03.896Z,101198.06
2018-06-14T06:10:30.827Z,101195.16
2018-06-14T06:12:57.751Z,101188.88
2018-06-14T06:15:24.658Z,101187.06
2018-06-14T06:17:51.618Z,101186.69
2018-06-14T06:20:18.539Z,101187.61
2018-06-14T06:22:46.309Z,101178.85
2018-06-14T06:25:13.254Z,101180.70
2018-06-14T06:27:40.197Z,101182.47
2018-06-14T06:30:07.264Z,101185.09
2018-06-14T06:32:34.221Z,101188.39
2018-06-14T06:35:01.473Z,101188.92
2018-06-14T06:37:28.396Z,101192.33
2018-06-14T06:39:56.436Z,101179.86
2018-06-14T06:42:23.322Z,101182.98
2018-06-14T06:44:50.254Z,101189.00
2018-06-14T06:47:17.182Z,101181.69
2018-06-14T06:49:44.118Z,101183.16
2018-06-14T06:52:11.053Z,101182.41
2018-06-14T06:54:37.984Z,101180.46
2018-06-14T06:57:04.958Z,101178.50
2018-06-14T06:59:31.883Z,101169.58
2018-06-14T07:01:58.814Z,101162.42
2018-06-14T07:04:25.751Z,101157.30
2018-06-14T07:06:52.681Z,101157.78
2018-06-14T07:09:19.615Z,101163.28
2018-06-14T07:11:46.555Z,101167.14
2018-06-14T07:14:13.510Z,101164.38
2018-06-14T07:16:40.454Z,101167.29
2018-06-14T07:19:07.637Z,101161.95
2018-06-14T07:21:34.915Z,101165.48
2018-06-14T07:24:01.902Z,101162.11
2018-06-14T07:26:28.849Z,101152.55
2018-06-14T07:28:55.805Z,101157.10
2018-06-14T07:31:22.853Z,101161.71
2018-06-14T07:33:49.825Z,101163.98
2018-06-14T07:36:16.771Z,101152.00
2018-06-14T07:38:43.745Z,101151.19
2018-06-14T07:41:10.665Z,101155.13
2018-06-14T07:43:37.606Z,101148.30
2018-06-14T07:46:04.582Z,101153.48
2018-06-14T07:48:31.505Z,101162.37
2018-06-14T07:50:58.466Z,101152.50
2018-06-14T07:53:25.403Z,101161.41
2018-06-14T07:55:52.332Z,101157.00
2018-06-14T07:58:19.281Z,101160.85
2018-06-14T08:00:46.237Z,101153.48
2018-06-14T08:03:13.173Z,101154.22
2018-06-14T08:05:40.128Z,101158.27
2018-06-14T08:08:07.079Z,101162.10
2018-06-14T08:10:34.038Z,101156.27
2018-06-14T08:13:00.961Z,101159.95
2018-06-14T08:15:27.911Z,101154.75
2018-06-14T08:17:54.836Z,101156.48
2018-06-14T08:20:22.562Z,101156.80
2018-06-14T08:22:49.791Z,101151.92
2018-06-14T08:25:16.762Z,101139.09
2018-06-14T08:27:43.702Z,101142.87
2018-06-14T08:30:10.655Z,101148.58
2018-06-14T08:32:37.646Z,101141.09
2018-06-14T08:35:04.606Z,101140.39
2018-06-14T08:37:31.562Z,101142.89
2018-06-14T08:39:58.725Z,101143.14
2018-06-14T08:42:26.289Z,101140.67
2018-06-14T08:44:53.600Z,101138.19
2018-06-14T08:47:20.510Z,101133.94
2018-06-14T08:49:47.454Z,101132.56
2018-06-14T08:52:14.419Z,101137.19
2018-06-14T08:54:41.378Z,101138.06
2018-06-14T08:57:08.337Z,101135.27
2018-06-14T08:59:35.302Z,101136.28
2018-06-14T09:02:02.269Z,101124.53
2018-06-14T09:04:29.225Z,101130.09
2018-06-14T09:06:56.206Z,101124.73
2018-06-14T09:09:23.145Z,101123.94
2018-06-14T09:11:50.090Z,101113.17
2018-06-14T09:14:17.127Z,101109.53
2018-06-14T09:16:44.056Z,101115.13
2018-06-14T09:19:10.990Z,101117.83
2018-06-14T09:21:37.949Z,101119.84
2018-06-14T09:24:04.890Z,101125.27
2018-06-14T09:26:31.819Z,101120.56
2018-06-14T09:28:58.728Z,101121.84
2018-06-14T09:31:25.654Z,101124.14
2018-06-14T09:33:52.773Z,101121.28
2018-06-14T09:36:19.710Z,101124.52
2018-06-14T09:38:46.614Z,101119.16
2018-06-14T09:41:13.536Z,101114.41
2018-06-14T09:43:40.604Z,101107.38
2018-06-14T09:46:07.521Z,101104.87
2018-06-14T09:48:34.432Z,101108.28
2018-06-14T09:51:01.395Z,101100.53
2018-06-14T09:53:28.309Z,101096.75
2018-06-14T09:55:55.230Z,101088.50
2018-06-14T09:58:22.145Z,101100.12
2018-06-14T10:00:49.099Z,101100.81
2018-06-14T10:03:16.019Z,101094.56
2018-06-14T10:05:42.948Z,101092.38
2018-06-14T10:08:09.853Z,101090.48
2018-06-14T10:10:36.780Z,101093.14
2018-06-14T10:13:03.706Z,101091.02
2018-06-14T10:15:30.625Z,101094.68
2018-06-14T10:17:57.548Z,101092.87
2018-06-14T10:20:24.463Z,101089.44
2018-06-14T10:22:51.384Z,101089.95
2018-06-14T10:25:18.301Z,101086.44
2018-06-14T10:27:45.229Z,101091.68
2018-06-14T10:30:12.134Z,101080.31
2018-06-14T10:32:39.054Z,101084.36
2018-06-14T10:35:05.977Z,101084.09
2018-06-14T10:37:32.906Z,101080.91
2018-06-14T10:39:59.829Z,101074.66
2018-06-14T10:42:26.745Z,101077.29
2018-06-14T10:44:53.660Z,101084.27
2018-06-14T10:47:20.576Z,101079.91
2018-06-14T10:49:47.501Z,101074.73
2018-06-14T10:52:14.421Z,101075.77
2018-06-14T10:54:41.342Z,101068.58
2018-06-14T10:57:08.264Z,101065.52
2018-06-14T10:59:35.178Z,101064.75
2018-06-14T11:02:02.141Z,101069.11
2018-06-14T11:04:29.074Z,101063.60
2018-06-14T11:09:22.474Z,101055.20
2018-06-14T11:11:49.428Z,101053.64
2018-06-14T11:14:16.386Z,101051.60
2018-06-14T11:16:43.337Z,101051.23
2018-06-14T11:19:10.268Z,101046.96
2018-06-14T11:21:37.225Z,101047.02
2018-06-14T11:24:04.214Z,101050.24
2018-06-14T11:26:31.165Z,101046.61
2018-06-14T11:28:58.112Z,101043.19
2018-06-14T11:31:25.069Z,101039.80
2018-06-14T11:33:52.677Z,101038.69
2018-06-14T11:36:19.658Z,101041.22
2018-06-14T11:38:46.680Z,101032.22
2018-06-14T11:41:13.658Z,101024.78
2018-06-14T11:43:40.601Z,101026.63
2018-06-14T11:46:07.551Z,101031.16
2018-06-14T11:48:34.509Z,101030.01
2018-06-14T11:51:01.710Z,101025.95
2018-06-14T11:53:28.659Z,101030.55
2018-06-14T11:55:55.641Z,101021.31
2018-06-14T11:58:22.577Z,101025.48
2018-06-14T12:00:49.512Z,101014.85
2018-06-14T12:03:16.457Z,101011.84
2018-06-14T12:05:43.387Z,101021.67
2018-06-14T12:08:10.329Z,101016.73
2018-06-14T12:10:37.257Z,101018.09
2018-06-14T12:13:04.225Z,101015.41
2018-06-14T12:15:31.161Z,101013.58
2018-06-14T12:17:58.121Z,101002.39
2018-06-14T12:20:25.055Z,100998.70
2018-06-14T12:22:52.137Z,100996.06
2018-06-14T12:25:19.105Z,100997.48
2018-06-14T12:27:46.077Z,100997.30
2018-06-14T12:30:13.036Z,100993.80
2018-06-14T12:32:39.985Z,100990.66
2018-06-14T12:35:06.930Z,100988.75
2018-06-14T12:37:33.889Z,100987.88
2018-06-14T12:40:00.841Z,100981.45
2018-06-14T12:42:27.785Z,100979.84
2018-06-14T12:44:54.713Z,100978.47
2018-06-14T12:47:21.666Z,100988.52
2018-06-14T12:49:48.615Z,100979.39
2018-06-14T12:52:15.580Z,100969.30
2018-06-14T12:54:42.505Z,100972.25
2018-06-14T12:57:09.477Z,100969.30
2018-06-14T12:59:36.437Z,100963.86
2018-06-14T13:02:03.395Z,100959.92
2018-06-14T13:04:30.378Z,100963.31
2018-06-14T13:06:57.334Z,100957.14
2018-06-14T13:09:24.297Z,100957.34
2018-06-14T13:11:51.237Z,100951.48
2018-06-14T13:14:18.177Z,100965.25
2018-06-14T13:16:45.137Z,100961.79
2018-06-14T13:19:12.169Z,100966.46
2018-06-14T13:21:39.109Z,100960.84
2018-06-14T13:24:06.053Z,100947.06
2018-06-14T13:26:32.977Z,100958.85
2018-06-14T13:28:59.962Z,100953.49
2018-06-14T13:31:26.893Z,100946.29
2018-06-14T13:33:53.881Z,100944.12
2018-06-14T13:36:20.825Z,100943.13
2018-06-14T13:38:47.810Z,100932.56
2018-06-14T13:41:14.750Z,100939.58
2018-06-14T13:43:41.715Z,100951.28
2018-06-14T13:46:08.649Z,100951.08
2018-06-14T13:48:35.607Z,100950.78
2018-06-14T13:51:02.653Z,100950.57
2018-06-14T13:53:29.573Z,100949.37
2018-06-14T13:55:56.490Z,100944.32
2018-06-14T13:58:23.474Z,100958.27
2018-06-14T14:00:50.459Z,100945.66
2018-06-14T14:03:19.602Z,100946.46
2018-06-14T14:05:46.529Z,100953.80
2018-06-14T14:08:17.011Z,100951.08
2018-06-14T14:10:44.700Z,100947.61
2018-06-14T14:13:12.555Z,100944.98
2018-06-14T14:15:40.554Z,100937.94
2018-06-14T14:18:07.936Z,100938.84
2018-06-14T14:20:35.941Z,100934.24
2018-06-14T14:23:04.689Z,100932.89
2018-06-14T14:25:32.099Z,100937.25
2018-06-14T14:28:00.992Z,100935.53
2018-06-14T14:30:29.082Z,100927.68
2018-06-14T14:32:58.354Z,100928.02
2018-06-14T14:35:26.041Z,100941.45
2018-06-14T14:37:53.049Z,100930.50
2018-06-14T14:40:20.004Z,100925.89
2018-06-14T14:42:46.929Z,100934.95
2018-06-14T14:45:13.909Z,100922.05
2018-06-14T14:47:40.880Z,100925.27
2018-06-14T14:50:08.318Z,100932.03
2018-06-14T14:52:35.248Z,100921.59
2018-06-14T14:55:02.238Z,100924.59
2018-06-14T14:57:29.212Z,100913.48
2018-06-14T14:59:56.168Z,100918.17
2018-06-14T15:02:23.104Z,100929.89
2018-06-14T15:04:50.049Z,100919.63
2018-06-14T15:07:16.990Z,100925.31
2018-06-14T15:09:43.944Z,100931.38
2018-06-14T15:12:10.879Z,100922.03
2018-06-14T15:14:37.821Z,100918.34
2018-06-14T15:17:04.761Z,100918.99
2018-06-14T15:19:31.693Z,100916.52
2018-06-14T15:21:58.631Z,100911.36
2018-06-14T15:24:25.568Z,100909.72
2018-06-14T15:26:52.470Z,100910.48
2018-06-14T15:29:19.381Z,100904.66
2018-06-14T15:31:46.286Z,100907.03
2018-06-14T15:34:13.221Z,100908.27
2018-06-14T15:36:40.152Z,100897.76
2018-06-14T15:39:07.646Z,100900.69
2018-06-14T15:41:34.589Z,100906.43
2018-06-14T15:44:01.522Z,100908.42
2018-06-14T15:46:28.453Z,100905.95
2018-06-14T15:48:55.375Z,100903.44
2018-06-14T15:51:22.315Z,100914.65
2018-06-14T15:53:49.233Z,100914.95
2018-06-14T15:56:33.042Z,100915.66
2018-06-14T15:59:00.017Z,100907.82
2018-06-14T16:01:26.945Z,100912.17
2018-06-14T16:03:53.863Z,100907.68
2018-06-14T16:06:20.784Z,100918.35
2018-06-14T16:08:47.705Z,100918.44
2018-06-14T16:11:14.736Z,100923.45
2018-06-14T16:13:41.633Z,100922.64
2018-06-14T16:16:08.578Z,100923.13
2018-06-14T16:18:35.531Z,100936.16
2018-06-14T16:21:02.939Z,100939.52
2018-06-14T16:23:29.889Z,100942.09
2018-06-14T16:25:56.849Z,100945.92
2018-06-14T16:28:23.786Z,100963.52
2018-06-14T16:30:50.729Z,100964.66
2018-06-14T16:33:17.668Z,100978.78
2018-06-14T16:35:44.616Z,100980.23
2018-06-14T16:38:11.554Z,100992.09
2018-06-14T16:40:38.493Z,100999.75
2018-06-14T16:43:05.454Z,101008.37
2018-06-14T16:45:32.413Z,101007.78
2018-06-14T16:47:59.341Z,101013.91
2018-06-14T16:50:26.276Z,101022.89
2018-06-14T16:52:53.285Z,101026.77
2018-06-14T16:55:20.248Z,101031.58
2018-06-14T16:57:47.184Z,101037.08
2018-06-14T17:00:14.145Z,101043.69
2018-06-14T17:02:41.071Z,101047.23
2018-06-14T17:05:08.149Z,101045.67
2018-06-14T17:07:35.070Z,101047.70
2018-06-14T17:10:02.034Z,101051.14
2018-06-14T17:12:28.977Z,101059.48
2018-06-14T17:14:55.904Z,101064.39
2018-06-14T17:17:22.849Z,101068.36
2018-06-14T17:19:49.906Z,101068.16
2018-06-14T17:22:16.978Z,101058.59
2018-06-14T17:24:43.993Z,101049.55
2018-06-14T17:27:10.980Z,101050.43
2018-06-14T17:29:37.982Z,101052.08
2018-06-14T17:32:04.995Z,101052.89
2018-06-14T17:34:31.925Z,101047.48
2018-06-14T17:36:59.412Z,101053.05
2018-06-14T17:39:26.550Z,101054.36
2018-06-14T17:41:53.502Z,101056.94
2018-06-14T17:44:20.443Z,101053.77
2018-06-14T17:46:47.397Z,101045.80
2018-06-14T17:49:14.355Z,101047.69
2018-06-14T17:51:41.298Z,101048.80
2018-06-14T17:54:08.216Z,101040.17
2018-06-14T17:56:35.158Z,101047.89
2018-06-14T17:59:02.111Z,101051.20
2018-06-14T18:01:29.109Z,101041.98
2018-06-14T18:03:56.014Z,101052.80
2018-06-14T18:06:23.002Z,101052.14
2018-06-14T18:08:49.906Z,101044.39
2018-06-14T18:11:16.839Z,101043.39
2018-06-14T18:13:43.773Z,101040.45
2018-06-14T18:16:10.732Z,101044.11
2018-06-14T18:18:37.657Z,101045.39
2018-06-14T18:21:04.604Z,101041.70
2018-06-14T18:23:31.540Z,101040.98
2018-06-14T18:25:58.465Z,101038.96
2018-06-14T18:28:25.381Z,101036.70
2018-06-14T18:30:52.331Z,101036.78
2018-06-14T18:33:19.225Z,101038.80
2018-06-14T18:35:46.128Z,101048.88
2018-06-14T18:38:13.050Z,101046.06
2018-06-14T18:40:39.974Z,101047.92
2018-06-14T18:43:06.910Z,101053.13
2018-06-14T18:45:33.827Z,101052.46
2018-06-14T18:48:00.801Z,101051.47
2018-06-14T18:50:27.753Z,101056.61
2018-06-14T18:52:54.682Z,101056.32
2018-06-14T18:55:21.609Z,101059.94
2018-06-14T18:57:48.528Z,101062.58
2018-06-14T19:00:15.434Z,101068.66
2018-06-14T19:02:42.396Z,101068.91
2018-06-14T19:05:09.389Z,101054.86
2018-06-14T19:07:36.314Z,101057.70
2018-06-14T19:10:03.252Z,101063.16
2018-06-14T19:12:30.177Z,101066.27
2018-06-14T19:14:57.148Z,101066.38
2018-06-14T19:17:24.054Z,101065.99
2018-06-14T19:19:50.972Z,101061.25
2018-06-14T19:22:17.913Z,101063.54
2018-06-14T19:24:44.874Z,101061.60
2018-06-14T19:27:11.821Z,101063.85
2018-06-14T19:29:38.962Z,101064.63
2018-06-14T19:32:05.916Z,101056.72
2018-06-14T19:34:32.821Z,101059.84
2018-06-14T19:36:59.765Z,101062.23
2018-06-14T19:39:26.689Z,101059.78
2018-06-14T19:41:53.609Z,101057.98
2018-06-14T19:44:20.523Z,101061.19
2018-06-14T19:46:47.477Z,101072.14
2018-06-14T19:49:14.393Z,101063.92
2018-06-14T19:51:41.313Z,101070.35
2018-06-14T19:54:08.234Z,101071.09
2018-06-14T19:56:35.151Z,101070.35
2018-06-14T19:59:02.074Z,101064.63
2018-06-14T20:01:28.985Z,101059.91
2018-06-14T20:03:55.928Z,101066.45
2018-06-14T20:06:22.849Z,101067.11
2018-06-14T20:08:49.766Z,101076.52
2018-06-14T20:11:16.703Z,101070.03
2018-06-14T20:13:43.653Z,101066.83
2018-06-14T20:16:10.592Z,101072.70
2018-06-14T20:18:37.548Z,101076.52
2018-06-14T20:21:04.536Z,101073.12
2018-06-14T20:23:31.446Z,101075.58
2018-06-14T20:25:59.162Z,101070.42
2018-06-14T20:28:26.102Z,101071.50
2018-06-14T20:30:53.077Z,101071.37
2018-06-14T20:33:20.008Z,101069.75
2018-06-14T20:35:46.923Z,101080.81
2018-06-14T20:38:13.873Z,101083.03
2018-06-14T20:40:40.834Z,101078.43
2018-06-14T20:43:07.783Z,101086.83
2018-06-14T20:45:34.737Z,101083.88
2018-06-14T20:48:01.669Z,101079.17
2018-06-14T20:50:28.605Z,101082.02
2018-06-14T20:52:55.553Z,101082.89
2018-06-14T20:55:22.494Z,101082.82
2018-06-14T20:57:50.174Z,101086.69
2018-06-14T21:00:17.238Z,101089.84
2018-06-14T21:02:44.206Z,101091.25
2018-06-14T21:05:11.117Z,101089.25
2018-06-14T21:07:38.041Z,101091.36
2018-06-14T21:10:04.971Z,101093.17
2018-06-14T21:12:31.905Z,101092.40
2018-06-14T21:14:59.891Z,101090.86
2018-06-14T21:17:27.682Z,101095.66
2018-06-14T21:19:55.215Z,101093.27
2018-06-14T21:22:22.468Z,101088.66
2018-06-14T21:24:49.413Z,101087.92
2018-06-14T21:27:16.957Z,101107.89
2018-06-14T21:29:43.906Z,101101.80
2018-06-14T21:32:11.344Z,101109.61
2018-06-14T21:34:38.270Z,101110.55
2018-06-14T21:37:05.994Z,101115.77
2018-06-14T21:39:39.142Z,101113.80
2018-06-14T21:42:06.771Z,101125.54
2018-06-14T21:44:33.720Z,101108.47
2018-06-14T21:47:00.670Z,101124.09
2018-06-14T21:49:27.611Z,101119.88
2018-06-14T21:51:54.534Z,101126.48
2018-06-14T21:54:21.458Z,101122.09
2018-06-14T21:56:48.380Z,101130.38
2018-06-14T21:59:15.322Z,101123.56
2018-06-14T22:01:42.253Z,101138.88
2018-06-14T22:04:09.189Z,101139.58
2018-06-14T22:06:36.110Z,101130.76
2018-06-14T22:09:04.432Z,101146.11
2018-06-14T22:11:31.365Z,101141.56
2018-06-14T22:13:58.290Z,101143.42
2018-06-14T22:16:25.233Z,101149.25
2018-06-14T22:18:52.161Z,101145.57
2018-06-14T22:21:19.098Z,101147.58
2018-06-14T22:23:46.116Z,101148.98
2018-06-14T22:26:13.086Z,101152.17
2018-06-14T22:28:40.021Z,101153.83
2018-06-14T22:31:06.938Z,101152.78
2018-06-14T22:33:45.478Z,101156.92
2018-06-14T22:36:12.401Z,101163.37
2018-06-14T22:38:39.341Z,101160.70
2018-06-14T22:41:06.277Z,101159.45
2018-06-14T22:43:33.209Z,101158.97
2018-06-14T22:46:00.154Z,101163.72
2018-06-14T22:48:27.089Z,101164.38
2018-06-14T22:51:05.618Z,101164.11
2018-06-14T22:53:32.549Z,101160.37
2018-06-14T22:55:59.476Z,101164.38
2018-06-14T22:58:26.396Z,101161.45
2018-06-14T23:01:39.895Z,101164.19
2018-06-14T23:04:08.145Z,101159.30
2018-06-14T23:06:35.073Z,101160.22
2018-06-14T23:10:16.790Z,101169.84
2018-06-14T23:12:43.753Z,101164.58
2018-06-14T23:15:11.037Z,101164.12
2018-06-14T23:17:37.977Z,101171.89
2018-06-14T23:20:04.942Z,101172.25
2018-06-14T23:22:31.893Z,101170.11
2018-06-14T23:24:58.849Z,101174.04
2018-06-14T23:27:25.790Z,101174.10
2018-06-14T23:29:52.720Z,101181.03
2018-06-14T23:32:19.707Z,101180.41
2018-06-14T23:34:46.654Z,101177.84
2018-06-14T23:37:13.597Z,101186.36
2018-06-14T23:39:40.513Z,101186.36
2018-06-14T23:42:07.450Z,101182.69
2018-06-14T23:44:34.377Z,101178.38
2018-06-14T23:47:01.321Z,101192.86
2018-06-14T23:49:28.250Z,101184.59
2018-06-14T23:51:55.291Z,101202.32
2018-06-14T23:54:22.234Z,101200.20
2018-06-14T23:56:49.173Z,101205.92
2018-06-14T23:59:16.122Z,101201.00
